Time;durP1;ratioP1;P1;durP2;ratioP2;P2;SDS_P1;SDS_P2;PMS_P1;PMS_P2;Temp;Humidity;BMP_temperature;BMP_pressure;BME280_temperature;BME280_humidity;BME280_pressure;Samples;Min_cycle;Max_cycle;Signal;HPM_P1;HPM_P2
2021/05/07 00:01:36;;;;;;;22.47;18.40;;;7.30;99.90;;;;;;5089747;28;21005;-76
2021/05/07 00:04:02;;;;;;;22.47;18.30;;;7.10;99.90;;;;;;5081195;28;20242;-76
2021/05/07 00:06:29;;;;;;;24.50;19.30;;;7.00;99.90;;;;;;5093018;28;20176;-76
2021/05/07 00:08:55;;;;;;;20.50;18.30;;;6.90;99.90;;;;;;5057321;28;20424;-76
2021/05/07 00:11:21;;;;;;;24.17;20.00;;;6.80;99.90;;;;;;5088136;28;20510;-76
2021/05/07 00:13:48;;;;;;;25.07;19.97;;;6.70;99.90;;;;;;5058212;28;20809;-76
2021/05/07 00:16:15;;;;;;;32.63;21.80;;;6.80;99.90;;;;;;5090157;28;20481;-77
2021/05/07 00:18:41;;;;;;;24.87;21.07;;;6.70;99.90;;;;;;5060776;28;20875;-76
2021/05/07 00:21:07;;;;;;;23.33;20.83;;;6.60;99.90;;;;;;5066690;28;20459;-76
2021/05/07 00:23:33;;;;;;;23.70;19.93;;;6.80;99.90;;;;;;5075249;28;20473;-76
2021/05/07 00:25:59;;;;;;;26.10;21.70;;;6.80;99.90;;;;;;5053970;28;20455;-76
2021/05/07 00:28:25;;;;;;;23.17;20.60;;;6.70;99.90;;;;;;5066472;28;20432;-76
2021/05/07 00:30:51;;;;;;;23.33;20.77;;;6.60;99.90;;;;;;5054031;28;20547;-77
2021/05/07 00:33:17;;;;;;;28.23;22.20;;;6.70;99.90;;;;;;5064952;28;20219;-76
2021/05/07 00:35:42;;;;;;;24.47;20.67;;;6.50;99.90;;;;;;5073699;28;20213;-77
2021/05/07 00:38:08;;;;;;;25.83;20.90;;;6.60;99.90;;;;;;5054131;28;20162;-77
2021/05/07 00:40:34;;;;;;;25.60;20.23;;;6.60;99.90;;;;;;5067829;28;20647;-77
2021/05/07 00:43:00;;;;;;;27.30;20.37;;;6.50;99.90;;;;;;5053936;28;20174;-77
2021/05/07 00:45:26;;;;;;;24.13;21.17;;;6.60;99.90;;;;;;5085042;28;20196;-76
2021/05/07 00:47:55;;;;;;;28.23;22.17;;;6.60;99.90;;;;;;5071338;28;20622;-75
2021/05/07 00:50:23;;;;;;;29.33;22.30;;;6.50;99.90;;;;;;5079381;28;20482;-76
2021/05/07 00:52:49;;;;;;;26.30;21.80;;;6.40;99.90;;;;;;5050495;28;20425;-75
2021/05/07 00:55:14;;;;;;;30.27;23.63;;;6.50;99.90;;;;;;5076839;28;20500;-76
2021/05/07 00:57:40;;;;;;;26.10;22.77;;;6.60;99.90;;;;;;5080410;28;20170;-76
2021/05/07 01:00:08;;;;;;;29.87;22.97;;;6.60;99.90;;;;;;5070924;28;20178;-76
2021/05/07 01:02:35;;;;;;;26.70;22.90;;;6.70;99.90;;;;;;5073458;28;20184;-76
2021/05/07 01:05:04;;;;;;;27.87;21.70;;;6.60;99.90;;;;;;5083137;28;20530;-76
2021/05/07 01:07:30;;;;;;;27.20;22.10;;;6.60;99.90;;;;;;5070594;28;20997;-76
2021/05/07 01:09:56;;;;;;;29.07;22.63;;;6.50;99.90;;;;;;5076103;28;20455;-76
2021/05/07 01:12:22;;;;;;;27.47;22.37;;;6.30;99.90;;;;;;5090012;28;20177;-76
2021/05/07 01:15:08;;;;;;;29.57;22.97;;;6.40;99.90;;;;;;5080945;28;20447;-77
2021/05/07 01:17:37;;;;;;;29.60;22.13;;;6.50;99.90;;;;;;5092335;28;20166;-77
2021/05/07 01:20:17;;;;;;;28.37;22.27;;;6.70;99.90;;;;;;5065999;28;20430;-77
2021/05/07 01:22:46;;;;;;;30.30;22.17;;;6.60;99.90;;;;;;5083776;28;20430;-77
2021/05/07 01:25:13;;;;;;;30.23;21.60;;;6.80;99.90;;;;;;5057037;28;20540;-77
2021/05/07 01:27:42;;;;;;;30.03;22.20;;;6.70;99.90;;;;;;5074897;28;20494;-77
2021/05/07 01:30:19;;;;;;;28.37;22.07;;;6.80;99.90;;;;;;5075801;28;20455;-77
2021/05/07 01:32:45;;;;;;;26.63;21.80;;;6.80;99.90;;;;;;5065584;28;20790;-76
2021/05/07 01:35:15;;;;;;;30.17;21.17;;;6.70;99.90;;;;;;5094764;28;20451;-76
2021/05/07 01:37:42;;;;;;;28.67;22.67;;;6.80;99.90;;;;;;5090668;28;20798;-76
2021/05/07 01:40:11;;;;;;;29.27;22.80;;;6.60;99.90;;;;;;5086630;28;20434;-76
2021/05/07 01:42:37;;;;;;;30.60;22.73;;;6.60;99.90;;;;;;5076026;28;20433;-76
2021/05/07 01:45:05;;;;;;;37.03;25.20;;;6.40;99.90;;;;;;5061595;28;20796;-76
2021/05/07 01:47:31;;;;;;;32.67;22.50;;;6.40;99.90;;;;;;5073505;28;20204;-77
2021/05/07 01:49:56;;;;;;;33.60;25.60;;;6.40;99.90;;;;;;5072953;28;20466;-76
2021/05/07 01:52:22;;;;;;;31.57;24.03;;;6.30;99.90;;;;;;5077356;28;20176;-76
2021/05/07 01:54:47;;;;;;;35.13;25.90;;;6.40;99.90;;;;;;5084657;28;20578;-76
2021/05/07 01:57:13;;;;;;;33.10;25.83;;;6.50;99.90;;;;;;5083868;28;20723;-76
2021/05/07 01:59:38;;;;;;;34.90;27.03;;;6.60;99.90;;;;;;5067306;28;20193;-76
2021/05/07 02:02:04;;;;;;;29.40;24.53;;;6.60;99.90;;;;;;5090915;28;20169;-77
2021/05/07 02:04:29;;;;;;;37.00;27.37;;;6.60;99.90;;;;;;5075806;28;20197;-77
2021/05/07 02:06:55;;;;;;;33.97;26.67;;;6.50;99.90;;;;;;5088400;28;20189;-76
2021/05/07 02:09:20;;;;;;;32.53;26.30;;;6.50;99.90;;;;;;5087239;28;20202;-77
2021/05/07 02:11:46;;;;;;;37.90;27.93;;;6.50;99.90;;;;;;5089463;28;20186;-77
2021/05/07 02:14:11;;;;;;;37.47;26.50;;;6.50;99.90;;;;;;5074418;28;20194;-76
2021/05/07 02:16:37;;;;;;;37.43;26.60;;;6.50;99.90;;;;;;5074294;28;20182;-76
2021/05/07 02:19:03;;;;;;;39.07;26.83;;;6.40;99.90;;;;;;5073632;28;20239;-77
2021/05/07 02:21:30;;;;;;;34.73;27.90;;;6.40;99.90;;;;;;5074238;28;20247;-77
2021/05/07 02:23:57;;;;;;;39.20;28.77;;;6.40;99.90;;;;;;5056452;28;20429;-77
2021/05/07 02:26:29;;;;;;;41.40;30.23;;;6.50;99.90;;;;;;5081770;28;20479;-77
2021/05/07 02:28:54;;;;;;;38.10;27.20;;;6.50;99.90;;;;;;5073336;28;20497;-77
2021/05/07 02:31:20;;;;;;;38.83;29.10;;;6.50;99.90;;;;;;5075575;28;20404;-74
2021/05/07 02:33:46;;;;;;;35.50;27.50;;;6.40;99.90;;;;;;5057773;28;20209;-75
2021/05/07 02:36:11;;;;;;;38.93;27.20;;;6.50;99.90;;;;;;5057918;28;20185;-75
2021/05/07 02:38:38;;;;;;;38.87;27.40;;;6.50;99.90;;;;;;5068059;28;20261;-74
2021/05/07 02:41:04;;;;;;;34.57;28.47;;;6.50;99.90;;;;;;5053421;28;20170;-74
2021/05/07 02:43:30;;;;;;;38.57;27.13;;;6.60;99.90;;;;;;5073804;28;20431;-74
2021/05/07 02:45:56;;;;;;;37.10;29.03;;;6.60;99.90;;;;;;5055713;28;20174;-74
2021/05/07 02:48:22;;;;;;;40.87;29.60;;;6.60;99.90;;;;;;5073128;28;20423;-74
2021/05/07 02:50:47;;;;;;;40.63;29.03;;;6.60;99.90;;;;;;5054720;28;20194;-74
2021/05/07 02:53:13;;;;;;;41.37;28.63;;;6.60;99.90;;;;;;5073355;28;20174;-74
2021/05/07 02:55:39;;;;;;;44.50;30.23;;;6.60;99.90;;;;;;5066896;28;20233;-74
2021/05/07 02:58:04;;;;;;;39.17;30.40;;;6.70;99.90;;;;;;5053543;28;20191;-74
2021/05/07 03:00:30;;;;;;;36.30;30.67;;;6.60;99.90;;;;;;5071826;28;20421;-74
2021/05/07 03:02:56;;;;;;;41.03;29.40;;;6.60;99.90;;;;;;5073332;28;20240;-74
2021/05/07 03:05:21;;;;;;;38.93;28.40;;;6.50;99.90;;;;;;5073291;28;20218;-74
2021/05/07 03:07:47;;;;;;;47.23;31.60;;;6.60;99.90;;;;;;5072881;28;20170;-75
2021/05/07 03:10:12;;;;;;;189.63;110.10;;;6.50;99.90;;;;;;5054546;28;20194;-74
2021/05/07 03:12:38;;;;;;;50.67;36.43;;;6.50;99.90;;;;;;5064066;28;20186;-74
2021/05/07 03:15:06;;;;;;;51.90;36.40;;;6.30;99.90;;;;;;5073075;28;20218;-75
2021/05/07 03:17:32;;;;;;;40.13;30.87;;;6.10;99.90;;;;;;5073263;28;20648;-76
2021/05/07 03:19:57;;;;;;;46.17;31.90;;;6.20;99.90;;;;;;5073076;28;20448;-76
2021/05/07 03:22:23;;;;;;;43.47;29.63;;;6.10;99.90;;;;;;5055206;28;20532;-77
2021/05/07 03:24:48;;;;;;;41.70;31.23;;;6.20;99.90;;;;;;5073222;28;20229;-75
2021/05/07 03:27:14;;;;;;;40.07;29.53;;;6.20;99.90;;;;;;5073440;28;20174;-75
2021/05/07 03:29:40;;;;;;;44.40;30.67;;;6.10;99.90;;;;;;5066298;28;20199;-75
2021/05/07 03:32:06;;;;;;;42.80;31.90;;;6.00;99.90;;;;;;5065092;28;20197;-76
2021/05/07 03:34:32;;;;;;;40.50;31.37;;;6.00;99.90;;;;;;5072693;28;20938;-77
2021/05/07 03:36:58;;;;;;;44.60;29.33;;;6.10;99.90;;;;;;5073222;28;20479;-74
2021/05/07 03:39:23;;;;;;;45.70;30.70;;;6.20;99.90;;;;;;5072513;28;20420;-74
2021/05/07 03:41:49;;;;;;;51.73;29.67;;;6.20;99.90;;;;;;5072632;28;20206;-76
2021/05/07 03:44:14;;;;;;;44.67;31.70;;;6.20;99.90;;;;;;5072924;28;20233;-75
2021/05/07 03:46:40;;;;;;;39.40;30.40;;;6.10;99.90;;;;;;5068692;28;20201;-76
2021/05/07 03:49:05;;;;;;;42.47;29.30;;;6.10;99.90;;;;;;5054032;28;20261;-76
2021/05/07 03:51:31;;;;;;;42.63;31.00;;;6.00;99.90;;;;;;5071806;28;20241;-76
2021/05/07 03:53:56;;;;;;;43.10;32.10;;;5.90;99.90;;;;;;5072799;28;20194;-76
2021/05/07 03:56:22;;;;;;;43.73;30.73;;;5.80;99.90;;;;;;5055102;28;20564;-77
2021/05/07 03:58:48;;;;;;;43.17;32.00;;;5.90;99.90;;;;;;5072776;28;20189;-75
2021/05/07 04:01:13;;;;;;;47.37;32.07;;;5.80;99.90;;;;;;5091466;28;20174;-76
2021/05/07 04:03:39;;;;;;;44.50;31.20;;;5.80;99.90;;;;;;5090646;28;20223;-76
2021/05/07 04:06:07;;;;;;;44.83;32.03;;;5.70;99.90;;;;;;5086634;28;20544;-75
2021/05/07 04:08:35;;;;;;;43.57;32.63;;;5.70;99.90;;;;;;5073791;28;20558;-75
2021/05/07 04:11:07;;;;;;;51.07;33.03;;;5.60;99.90;;;;;;5071616;28;20567;-76
2021/05/07 04:16:00;;;;;;;46.70;33.37;;;5.50;99.90;;;;;;5076116;28;20416;-74
2021/05/07 04:18:26;;;;;;;52.90;34.37;;;5.40;99.90;;;;;;5072148;28;20898;-75
2021/05/07 04:20:52;;;;;;;49.37;33.93;;;5.50;99.90;;;;;;5045350;28;20182;-75
2021/05/07 04:23:18;;;;;;;49.80;35.07;;;5.40;99.90;;;;;;5068254;28;20417;-76
2021/05/07 04:25:43;;;;;;;61.10;37.13;;;5.40;99.90;;;;;;5071819;28;20185;-74
2021/05/07 04:28:09;;;;;;;54.90;36.37;;;5.50;99.90;;;;;;5071890;28;20184;-75
2021/05/07 04:30:35;;;;;;;54.07;35.50;;;5.50;99.90;;;;;;5071538;28;20556;-74
2021/05/07 04:33:00;;;;;;;43.90;33.23;;;5.50;99.90;;;;;;5071745;28;20526;-74
2021/05/07 04:35:26;;;;;;;51.87;36.37;;;5.60;99.90;;;;;;5072292;28;20720;-75
2021/05/07 04:37:52;;;;;;;47.67;32.43;;;5.60;99.90;;;;;;5047231;28;20529;-75
2021/05/07 04:40:18;;;;;;;51.33;33.40;;;5.50;99.90;;;;;;5054628;28;20312;-75
2021/05/07 04:42:43;;;;;;;44.97;31.20;;;5.40;99.90;;;;;;5071895;28;20510;-75
2021/05/07 04:45:09;;;;;;;47.93;30.60;;;5.50;99.90;;;;;;5071589;28;20213;-75
2021/05/07 04:47:35;;;;;;;42.47;31.13;;;5.70;99.90;;;;;;5071775;28;20184;-75
2021/05/07 04:50:01;;;;;;;45.40;32.90;;;5.60;99.90;;;;;;5053019;28;20460;-75
2021/05/07 04:52:26;;;;;;;47.70;32.50;;;5.50;99.90;;;;;;5071333;28;20599;-76
2021/05/07 04:54:52;;;;;;;43.50;31.23;;;5.70;99.90;;;;;;5062527;28;20206;-75
2021/05/07 04:57:17;;;;;;;42.43;29.70;;;5.80;99.90;;;;;;5060971;28;20182;-75
2021/05/07 04:59:43;;;;;;;44.13;29.37;;;5.80;99.90;;;;;;5071311;28;20201;-75
2021/05/07 05:02:09;;;;;;;44.23;30.70;;;5.90;99.90;;;;;;5086743;28;20213;-75
2021/05/07 05:04:34;;;;;;;48.50;30.93;;;5.90;99.90;;;;;;5096001;28;20192;-75
2021/05/07 05:07:01;;;;;;;38.70;30.07;;;5.90;99.90;;;;;;5090522;28;20193;-75
2021/05/07 05:09:27;;;;;;;46.57;32.70;;;5.90;99.90;;;;;;5056056;28;20659;-75
2021/05/07 05:11:52;;;;;;;79.67;50.47;;;5.80;99.90;;;;;;5073429;28;20426;-74
2021/05/07 05:14:18;;;;;;;61.87;41.70;;;5.80;99.90;;;;;;5059920;28;20194;-75
2021/05/07 05:16:43;;;;;;;57.50;38.67;;;5.90;99.90;;;;;;5066786;28;20657;-75
2021/05/07 05:19:09;;;;;;;45.10;31.90;;;5.90;99.90;;;;;;5092209;28;20174;-76
2021/05/07 05:21:34;;;;;;;46.40;31.27;;;6.00;99.90;;;;;;5075422;28;20170;-76
2021/05/07 05:24:00;;;;;;;42.13;30.70;;;6.30;99.90;;;;;;5080476;28;20281;-76
2021/05/07 05:26:25;;;;;;;37.23;27.10;;;6.50;99.90;;;;;;5078463;28;20544;-76
2021/05/07 05:28:51;;;;;;;39.70;28.33;;;6.60;99.90;;;;;;5075988;28;20177;-76
2021/05/07 05:31:16;;;;;;;35.93;27.70;;;6.70;99.90;;;;;;5086780;28;20189;-76
2021/05/07 05:33:42;;;;;;;36.13;25.20;;;7.00;99.90;;;;;;5073776;28;20666;-75
2021/05/07 05:36:07;;;;;;;32.23;24.93;;;7.20;99.90;;;;;;5094203;28;20235;-76
2021/05/07 05:38:33;;;;;;;36.37;27.30;;;7.20;99.90;;;;;;5089334;28;20177;-76
2021/05/07 05:40:58;;;;;;;32.07;25.63;;;7.30;99.90;;;;;;5063397;28;20576;-76
2021/05/07 05:43:24;;;;;;;37.00;26.73;;;7.30;99.90;;;;;;5090860;28;20181;-76
2021/05/07 05:45:50;;;;;;;32.60;24.23;;;7.40;99.90;;;;;;5093892;28;20231;-76
2021/05/07 05:48:17;;;;;;;36.13;27.47;;;7.10;99.90;;;;;;5080624;28;20207;-75
2021/05/07 05:50:49;;;;;;;33.80;27.63;;;7.00;99.90;;;;;;5058402;28;20860;-76
2021/05/07 05:53:15;;;;;;;39.90;30.73;;;6.90;99.90;;;;;;5091723;28;20450;-76
2021/05/07 05:55:41;;;;;;;39.30;29.20;;;7.00;99.90;;;;;;5075246;28;20842;-76
2021/05/07 05:58:07;;;;;;;36.80;27.03;;;6.80;99.90;;;;;;5088375;28;20427;-76
2021/05/07 06:00:33;;;;;;;39.00;29.13;;;6.80;99.90;;;;;;5084379;28;20441;-76
2021/05/07 06:02:59;;;;;;;43.20;30.87;;;6.90;99.90;;;;;;5082048;28;20209;-76
2021/05/07 06:05:25;;;;;;;41.30;29.87;;;7.00;99.90;;;;;;5075166;28;20884;-76
2021/05/07 06:07:51;;;;;;;37.40;28.43;;;7.00;99.90;;;;;;5068410;28;20435;-76
2021/05/07 06:10:18;;;;;;;38.33;29.63;;;7.00;99.90;;;;;;5085392;28;21026;-76
2021/05/07 06:12:45;;;;;;;43.67;30.13;;;7.20;99.90;;;;;;5086225;28;20169;-76
2021/05/07 06:15:11;;;;;;;40.50;29.97;;;7.40;99.90;;;;;;5076050;28;20948;-77
2021/05/07 06:17:38;;;;;;;38.40;29.07;;;7.50;99.90;;;;;;5087829;28;20423;-76
2021/05/07 06:20:06;;;;;;;39.50;26.70;;;7.60;99.90;;;;;;5086756;28;20485;-77
2021/05/07 06:22:33;;;;;;;20.87;16.63;;;7.60;99.90;;;;;;5091998;28;20434;-77
2021/05/07 06:24:59;;;;;;;23.50;16.33;;;7.50;99.90;;;;;;5086005;28;20523;-76
2021/05/07 06:27:25;;;;;;;22.40;15.80;;;7.40;99.90;;;;;;5084289;28;20427;-77
2021/05/07 06:29:51;;;;;;;23.10;18.00;;;7.40;99.90;;;;;;5085440;28;20466;-77
2021/05/07 06:32:17;;;;;;;24.30;20.33;;;7.30;99.90;;;;;;5089625;28;20427;-77
2021/05/07 06:34:42;;;;;;;29.07;22.17;;;7.30;99.90;;;;;;5073144;28;20201;-77
2021/05/07 06:37:08;;;;;;;28.33;21.50;;;7.20;99.90;;;;;;5062224;28;20504;-77
2021/05/07 06:39:33;;;;;;;28.87;24.20;;;7.10;99.90;;;;;;5060823;28;20612;-77
2021/05/07 06:42:04;;;;;;;27.67;22.77;;;6.90;99.90;;;;;;5075807;28;20182;-77
2021/05/07 06:44:30;;;;;;;31.13;24.73;;;7.00;99.90;;;;;;5059621;28;20222;-77
2021/05/07 06:46:56;;;;;;;30.37;24.50;;;7.00;99.90;;;;;;5088430;28;20792;-77
2021/05/07 06:49:22;;;;;;;31.30;24.63;;;7.00;99.90;;;;;;5089422;28;20527;-77
2021/05/07 06:51:49;;;;;;;30.53;24.30;;;7.00;99.90;;;;;;5079698;28;20174;-77
2021/05/07 06:54:14;;;;;;;34.53;25.67;;;7.10;99.90;;;;;;5076268;28;20795;-77
2021/05/07 06:56:40;;;;;;;31.80;25.30;;;7.30;99.90;;;;;;5062207;28;20413;-77
2021/05/07 06:59:07;;;;;;;30.23;24.30;;;7.20;99.90;;;;;;5076665;28;20214;-76
2021/05/07 07:01:33;;;;;;;34.87;27.20;;;7.30;99.90;;;;;;5083526;28;20260;-77
2021/05/07 07:03:59;;;;;;;33.47;25.17;;;7.20;99.90;;;;;;5054981;28;20455;-75
2021/05/07 07:06:24;;;;;;;39.07;27.27;;;7.20;99.90;;;;;;5075518;28;20404;-73
2021/05/07 07:08:51;;;;;;;29.10;24.13;;;7.20;99.90;;;;;;5075401;28;20171;-74
2021/05/07 07:11:17;;;;;;;33.20;24.33;;;7.20;99.90;;;;;;5071046;28;20202;-77
2021/05/07 07:13:42;;;;;;;32.47;25.53;;;7.10;99.90;;;;;;5074682;28;20451;-77
2021/05/07 07:16:09;;;;;;;32.97;25.47;;;7.10;99.90;;;;;;5074672;28;20184;-77
2021/05/07 07:18:34;;;;;;;35.90;25.90;;;7.00;99.90;;;;;;5075729;28;20174;-77
2021/05/07 07:21:00;;;;;;;36.50;29.63;;;7.20;99.90;;;;;;5086131;28;20438;-77
2021/05/07 07:23:25;;;;;;;39.90;28.70;;;7.30;99.90;;;;;;5088076;28;20213;-77
2021/05/07 07:25:51;;;;;;;34.37;25.17;;;7.30;99.90;;;;;;5090433;28;20189;-77
2021/05/07 07:28:18;;;;;;;37.23;25.87;;;7.30;99.90;;;;;;5067134;28;20181;-77
2021/05/07 07:30:44;;;;;;;33.00;24.03;;;7.30;99.90;;;;;;5074608;28;20255;-77
2021/05/07 07:33:10;;;;;;;30.33;23.10;;;7.40;99.90;;;;;;5072365;28;20858;-75
2021/05/07 07:35:36;;;;;;;28.77;22.33;;;7.30;99.90;;;;;;5073655;28;20454;-75
2021/05/07 07:38:01;;;;;;;29.63;22.27;;;7.40;99.90;;;;;;5073282;28;20167;-76
2021/05/07 07:40:27;;;;;;;28.63;22.00;;;7.50;99.90;;;;;;5072787;28;20174;-76
2021/05/07 07:42:52;;;;;;;28.90;23.17;;;7.50;99.90;;;;;;5055057;28;20173;-76
2021/05/07 07:45:18;;;;;;;29.40;19.17;;;7.60;99.90;;;;;;5061433;28;20195;-75
2021/05/07 07:47:50;;;;;;;30.43;19.03;;;7.50;99.90;;;;;;5109715;27;20853;-75
2021/05/07 07:50:15;;;;;;;23.73;17.73;;;7.40;99.90;;;;;;5100773;28;20471;-75
2021/05/07 07:52:41;;;;;;;23.97;15.47;;;7.40;99.90;;;;;;5090526;28;20181;-75
2021/05/07 07:55:09;;;;;;;21.30;13.40;;;7.20;99.90;;;;;;5108551;28;20205;-75
2021/05/07 07:57:34;;;;;;;12.53;10.00;;;7.30;99.90;;;;;;5109631;28;20745;-75
2021/05/07 08:00:00;;;;;;;6.97;6.30;;;7.40;99.90;;;;;;5095904;28;20426;-76
2021/05/07 08:02:26;;;;;;;7.17;5.90;;;7.20;99.90;;;;;;5085534;28;20189;-76
2021/05/07 08:04:53;;;;;;;8.77;6.10;;;6.90;99.90;;;;;;5063733;28;20653;-75
2021/05/07 08:07:19;;;;;;;7.77;7.00;;;6.60;99.90;;;;;;5109044;28;20462;-75
2021/05/07 08:09:44;;;;;;;8.07;7.27;;;6.40;99.90;;;;;;5076740;28;20428;-75
2021/05/07 08:12:10;;;;;;;8.73;7.80;;;6.20;99.90;;;;;;5068268;28;20692;-75
2021/05/07 08:14:36;;;;;;;8.20;6.37;;;6.10;99.90;;;;;;5074799;28;20244;-75
2021/05/07 08:17:02;;;;;;;7.33;6.57;;;6.00;99.90;;;;;;5074547;28;20423;-75
2021/05/07 08:19:28;;;;;;;8.10;6.80;;;5.90;99.90;;;;;;5077013;28;20183;-75
2021/05/07 08:21:54;;;;;;;7.30;6.60;;;5.80;99.90;;;;;;5088632;28;20428;-76
2021/05/07 08:24:21;;;;;;;7.77;6.77;;;5.80;99.90;;;;;;5072123;28;20229;-76
2021/05/07 08:26:46;;;;;;;9.33;8.30;;;5.70;99.90;;;;;;5077844;28;20451;-76
2021/05/07 08:29:12;;;;;;;7.33;6.73;;;5.70;99.90;;;;;;5089280;28;20413;-76
2021/05/07 08:31:37;;;;;;;8.43;7.43;;;5.80;99.90;;;;;;5098330;28;20170;-76
2021/05/07 08:34:03;;;;;;;9.93;8.93;;;5.80;99.90;;;;;;5072409;28;20230;-76
2021/05/07 08:36:28;;;;;;;8.60;7.77;;;6.10;99.90;;;;;;5088022;28;20181;-76
2021/05/07 08:38:55;;;;;;;9.13;8.20;;;6.30;99.90;;;;;;5087779;28;20170;-76
2021/05/07 08:41:20;;;;;;;9.37;8.40;;;6.50;99.90;;;;;;5079876;28;20261;-77
2021/05/07 08:43:47;;;;;;;9.37;8.13;;;6.70;99.90;;;;;;5088421;28;20473;-77
2021/05/07 08:46:13;;;;;;;8.13;7.27;;;7.00;99.90;;;;;;5073671;28;20308;-77
2021/05/07 08:48:39;;;;;;;8.80;7.90;;;7.20;99.90;;;;;;5070168;28;20431;-77
2021/05/07 08:51:05;;;;;;;8.80;8.00;;;7.50;99.90;;;;;;5087932;28;20223;-77
2021/05/07 08:53:31;;;;;;;12.53;10.20;;;7.60;99.90;;;;;;5086951;28;20481;-77
2021/05/07 08:56:02;;;;;;;13.63;9.43;;;7.90;99.90;;;;;;5087751;28;20434;-77
2021/05/07 08:58:28;;;;;;;10.03;9.13;;;8.00;99.90;;;;;;5078327;28;20512;-77
2021/05/07 09:00:53;;;;;;;10.00;9.00;;;8.10;99.90;;;;;;5093781;28;20494;-77
2021/05/07 09:03:19;;;;;;;10.33;9.30;;;8.10;99.90;;;;;;5069415;28;20596;-77
2021/05/07 09:05:45;;;;;;;9.73;8.73;;;8.20;99.90;;;;;;5074273;28;20198;-77
2021/05/07 09:08:10;;;;;;;10.97;9.87;;;8.40;99.90;;;;;;5074542;28;20181;-77
2021/05/07 09:10:41;;;;;;;11.50;10.43;;;8.60;99.90;;;;;;5067648;28;20226;-76
2021/05/07 09:13:09;;;;;;;11.67;10.47;;;8.80;99.90;;;;;;5058410;28;20323;-77
2021/05/07 09:15:38;;;;;;;14.27;11.47;;;9.00;99.90;;;;;;5075194;28;20447;-77
2021/05/07 09:18:04;;;;;;;11.50;10.37;;;9.40;99.90;;;;;;5075565;28;20432;-77
2021/05/07 09:20:37;;;;;;;10.77;9.23;;;9.60;99.90;;;;;;5067220;28;20425;-77
2021/05/07 09:23:05;;;;;;;10.30;9.30;;;9.80;99.90;;;;;;5069330;28;20435;-77
2021/05/07 09:25:30;;;;;;;10.83;8.97;;;10.20;99.90;;;;;;5057298;28;20460;-78
2021/05/07 09:28:15;;;;;;;15.23;9.80;;;10.30;99.90;;;;;;5074595;28;20519;-78
2021/05/07 09:30:41;;;;;;;11.83;9.83;;;10.30;99.90;;;;;;5060555;28;20245;-78
2021/05/07 09:33:15;;;;;;;8.93;7.93;;;10.20;99.90;;;;;;5065566;28;20510;-78
2021/05/07 09:35:42;;;;;;;8.07;7.27;;;10.20;99.90;;;;;;5054586;28;20446;-78
2021/05/07 09:38:10;;;;;;;7.27;6.63;;;10.30;99.90;;;;;;5071604;28;20432;-78
2021/05/07 09:40:37;;;;;;;12.90;6.20;;;10.30;99.90;;;;;;5060566;28;20487;-78
2021/05/07 09:43:07;;;;;;;7.40;6.00;;;10.50;99.90;;;;;;5055048;28;20440;-78
2021/05/07 09:45:35;;;;;;;9.70;5.30;;;10.70;99.90;;;;;;5067348;28;20485;-79
2021/05/07 09:48:00;;;;;;;4.00;3.67;;;11.10;99.90;;;;;;5045636;28;20433;-79
2021/05/07 09:50:38;;;;;;;2.87;2.57;;;11.10;99.90;;;;;;5065317;28;20773;-79
2021/05/07 09:53:20;;;;;;;3.07;2.77;;;11.30;99.90;;;;;;5076459;28;20231;-80
2021/05/07 09:55:47;;;;;;;8.23;7.07;;;12.00;99.90;;;;;;5075449;28;20425;-80
2021/05/07 09:58:13;;;;;;;3.03;2.50;;;12.50;99.90;;;;;;5071530;28;20800;-80
2021/05/07 10:00:40;;;;;;;3.07;2.87;;;12.70;99.90;;;;;;5062439;28;20433;-79
2021/05/07 10:03:06;;;;;;;6.23;4.57;;;12.90;99.90;;;;;;5058822;28;20445;-79
2021/05/07 10:05:33;;;;;;;2.90;2.70;;;13.10;99.90;;;;;;5057532;28;20445;-79
2021/05/07 10:08:00;;;;;;;2.60;2.40;;;13.60;99.90;;;;;;5072341;28;20500;-80
2021/05/07 10:10:28;;;;;;;2.60;2.40;;;14.00;99.90;;;;;;5063005;28;20429;-80
2021/05/07 10:12:57;;;;;;;2.50;2.30;;;14.30;99.90;;;;;;5038336;28;20441;-81
2021/05/07 10:15:35;;;;;;;2.57;2.27;;;14.60;99.90;;;;;;5050552;28;20448;-80
2021/05/07 10:18:02;;;;;;;2.20;2.10;;;15.10;99.90;;;;;;5072351;28;20458;-79
2021/05/07 10:20:33;;;;;;;2.43;2.23;;;15.20;99.90;;;;;;5068741;28;20472;-79
2021/05/07 10:23:00;;;;;;;7.57;2.73;;;14.70;99.90;;;;;;5054391;28;20440;-79
2021/05/07 10:25:26;;;;;;;5.10;3.27;;;14.60;99.90;;;;;;5062653;28;20817;-79
2021/05/07 10:27:56;;;;;;;3.67;2.60;;;14.40;99.90;;;;;;5057626;28;20441;-79
2021/05/07 10:30:25;;;;;;;4.67;2.90;;;14.70;99.90;;;;;;5061702;28;20428;-79
2021/05/07 10:33:03;;;;;;;3.00;2.60;;;15.10;99.90;;;;;;5062035;28;20436;-80
2021/05/07 10:35:37;;;;;;;2.70;2.20;;;15.40;99.90;;;;;;5075520;28;20531;-79
2021/05/07 10:38:17;;;;;;;3.10;2.73;;;15.60;99.90;;;;;;5074619;28;20412;-77
2021/05/07 10:40:45;;;;;;;2.50;2.30;;;15.40;99.90;;;;;;5070893;28;20871;-78
2021/05/07 10:43:12;;;;;;;2.97;2.67;;;15.50;99.90;;;;;;5075969;28;20413;-79
2021/05/07 10:45:53;;;;;;;2.87;2.30;;;15.60;99.90;;;;;;5061072;28;20445;-79
2021/05/07 10:48:21;;;;;;;8.07;3.60;;;15.30;99.90;;;;;;5041161;28;20457;-79
2021/05/07 10:50:49;;;;;;;3.37;3.07;;;15.10;99.90;;;;;;5059156;28;20961;-79
2021/05/07 10:53:31;;;;;;;3.07;2.83;;;14.80;99.90;;;;;;5069921;28;20490;-79
2021/05/07 10:55:58;;;;;;;4.00;2.60;;;14.60;99.90;;;;;;5075996;28;20953;-78
2021/05/07 10:58:37;;;;;;;2.50;2.30;;;14.40;99.90;;;;;;5061328;28;20453;-78
2021/05/07 11:01:28;;;;;;;3.63;2.67;;;14.10;99.90;;;;;;5037022;28;20475;-79
2021/05/07 11:04:11;;;;;;;3.10;2.53;;;13.90;99.90;;;;;;5046596;28;20998;-79
2021/05/07 11:06:46;;;;;;;3.13;2.33;;;13.90;99.90;;;;;;5064288;28;20449;-79
2021/05/07 11:09:12;;;;;;;3.13;2.67;;;14.40;99.90;;;;;;5057752;28;20464;-79
2021/05/07 11:11:38;;;;;;;3.20;2.37;;;14.30;99.90;;;;;;5036628;28;20422;-80
2021/05/07 11:14:03;;;;;;;3.37;2.07;;;14.60;99.90;;;;;;5038229;28;20191;-79
2021/05/07 11:16:40;;;;;;;3.53;2.20;;;15.00;99.90;;;;;;5054708;28;20752;-78
2021/05/07 11:19:05;;;;;;;1.90;1.73;;;15.20;98.10;;;;;;5059109;28;20239;-79
2021/05/07 11:21:32;;;;;;;3.60;2.47;;;15.30;94.30;;;;;;5055357;28;20921;-79
2021/05/07 11:23:58;;;;;;;3.10;2.47;;;14.90;94.00;;;;;;5045109;28;20255;-78
2021/05/07 11:26:35;;;;;;;3.40;2.90;;;14.30;96.80;;;;;;5070661;28;20955;-78
2021/05/07 11:29:01;;;;;;;4.40;2.60;;;14.00;99.90;;;;;;5059221;28;20435;-78
2021/05/07 11:31:27;;;;;;;5.70;2.60;;;14.00;99.90;;;;;;5052077;28;20894;-78
2021/05/07 11:33:52;;;;;;;3.13;2.33;;;14.00;99.90;;;;;;5035458;28;20285;-78
2021/05/07 11:36:18;;;;;;;2.63;2.20;;;14.00;99.90;;;;;;5068362;28;20972;-78
2021/05/07 11:38:44;;;;;;;5.57;2.70;;;13.80;99.70;;;;;;5070318;28;20539;-77
2021/05/07 11:41:18;;;;;;;5.80;3.30;;;13.50;99.90;;;;;;5053885;28;20183;-78
2021/05/07 11:43:43;;;;;;;3.47;2.73;;;13.30;99.90;;;;;;5055393;28;20208;-78
2021/05/07 11:46:09;;;;;;;3.10;2.80;;;13.10;99.90;;;;;;5062955;28;20460;-78
2021/05/07 11:48:37;;;;;;;6.47;2.93;;;13.00;99.90;;;;;;5056982;28;20182;-77
2021/05/07 11:51:07;;;;;;;3.50;3.20;;;12.60;99.90;;;;;;5066860;28;20990;-78
2021/05/07 11:53:36;;;;;;;4.13;3.73;;;13.00;99.90;;;;;;5058160;28;20446;-78
2021/05/07 11:56:03;;;;;;;2.90;2.70;;;13.00;99.90;;;;;;5071936;28;20774;-77
2021/05/07 11:58:37;;;;;;;4.60;3.10;;;13.20;99.90;;;;;;5053417;28;20443;-78
2021/05/07 12:01:06;;;;;;;4.90;3.07;;;13.30;99.90;;;;;;5067604;28;20508;-78
2021/05/07 12:03:41;;;;;;;3.10;2.83;;;13.80;99.90;;;;;;5048799;28;20528;-79
2021/05/07 12:06:25;;;;;;;3.97;3.03;;;13.90;99.90;;;;;;5072689;28;20455;-78
2021/05/07 12:08:52;;;;;;;3.00;2.80;;;14.00;99.90;;;;;;5040012;28;20466;-77
2021/05/07 12:11:18;;;;;;;3.10;2.90;;;14.00;99.90;;;;;;5068733;28;20432;-77
2021/05/07 12:13:44;;;;;;;4.10;3.70;;;13.90;99.90;;;;;;5063263;28;20872;-77
2021/05/07 12:16:10;;;;;;;3.47;3.17;;;13.70;98.90;;;;;;5051633;28;20416;-78
2021/05/07 12:18:48;;;;;;;3.70;3.40;;;13.50;99.90;;;;;;5051468;28;20413;-77
2021/05/07 12:21:14;;;;;;;3.60;3.10;;;13.30;99.90;;;;;;5039003;28;20449;-77
2021/05/07 12:23:44;;;;;;;6.53;3.17;;;13.60;99.90;;;;;;5049088;28;20556;-77
2021/05/07 12:26:10;;;;;;;3.80;3.37;;;14.10;99.90;;;;;;5071570;28;20198;-78
2021/05/07 12:28:36;;;;;;;3.20;2.93;;;14.60;99.90;;;;;;5056356;28;20772;-78
2021/05/07 12:31:07;;;;;;;3.30;3.03;;;15.10;99.90;;;;;;5054413;28;20197;-78
2021/05/07 12:33:35;;;;;;;3.30;3.00;;;15.60;99.90;;;;;;5062927;28;20926;-78
2021/05/07 12:36:02;;;;;;;2.67;2.47;;;16.10;94.80;;;;;;5071413;28;20535;-78
2021/05/07 12:38:29;;;;;;;3.33;3.10;;;16.40;90.80;;;;;;5061680;28;20425;-78
2021/05/07 12:41:11;;;;;;;3.10;2.67;;;16.60;83.60;;;;;;5040711;28;20486;-79
2021/05/07 12:43:42;;;;;;;3.07;2.87;;;16.90;80.00;;;;;;5095614;28;20423;-78